Time;durP1;ratioP1;P1;durP2;ratioP2;P2;SDS_P1;SDS_P2;PMS_P1;PMS_P2;Temp;Humidity;BMP_temperature;BMP_pressure;BME280_temperature;BME280_humidity;BME280_pressure;Samples;Min_cycle;Max_cycle;Signal;HPM_P1;HPM_P2
2021/01/02 00:01:55;;;;;;;27.60;16.10;;;;;;;3.00;100.00;99907.17;640249;221;24818;-74
2021/01/02 00:04:32;;;;;;;31.70;16.87;;;;;;;2.95;100.00;99901.04;639384;224;24804;-74
2021/01/02 00:07:09;;;;;;;35.03;17.20;;;;;;;2.82;100.00;99905.86;641295;224;24829;-73
2021/01/02 00:09:37;;;;;;;35.43;17.80;;;;;;;2.81;100.00;99906.75;639590;220;24793;-74
2021/01/02 00:12:11;;;;;;;35.00;16.33;;;;;;;2.77;100.00;99898.91;640904;223;24827;-73
2021/01/02 00:14:44;;;;;;;31.20;16.17;;;;;;;2.63;100.00;99896.80;625213;229;24939;-73
2021/01/02 00:17:24;;;;;;;35.68;20.30;;;;;;;2.74;100.00;99901.23;632217;225;32969;-73
2021/01/02 00:20:05;;;;;;;34.73;18.97;;;;;;;2.68;100.00;99901.65;635403;220;25148;-73
2021/01/02 00:22:41;;;;;;;32.10;17.70;;;;;;;2.63;100.00;99901.11;639764;225;24872;-73
2021/01/02 00:25:12;;;;;;;33.97;16.53;;;;;;;2.65;100.00;99899.27;638365;225;24850;-74
2021/01/02 00:28:04;;;;;;;34.92;21.30;;;;;;;2.79;100.00;99905.58;631869;225;32958;-73
2021/01/02 00:30:42;;;;;;;31.67;17.80;;;;;;;2.65;100.00;99906.50;628098;225;26856;-74
2021/01/02 00:33:14;;;;;;;32.03;19.20;;;;;;;2.57;100.00;99901.08;638686;225;24893;-73
2021/01/02 00:35:43;;;;;;;33.37;17.50;;;;;;;2.53;100.00;99902.64;624771;229;25843;-73
2021/01/02 00:38:11;;;;;;;27.13;15.60;;;;;;;2.54;100.00;99905.13;641382;223;24814;-74
2021/01/02 00:40:39;;;;;;;29.63;16.87;;;;;;;2.52;100.00;99908.70;641733;220;24779;-73
2021/01/02 00:43:07;;;;;;;28.63;15.80;;;;;;;2.51;100.00;99902.75;619736;229;24903;-74
2021/01/02 00:45:35;;;;;;;30.00;16.00;;;;;;;2.56;100.00;99903.28;624673;228;24813;-74
2021/01/02 00:48:03;;;;;;;30.53;16.03;;;;;;;2.62;100.00;99915.70;624945;228;24943;-74
2021/01/02 00:50:32;;;;;;;29.10;16.73;;;;;;;2.64;100.00;99911.28;633240;221;24812;-73
2021/01/02 00:53:28;;;;;;;30.03;16.60;;;;;;;2.70;100.00;99918.23;639299;225;24796;-73
2021/01/02 00:56:07;;;;;;;31.30;16.70;;;;;;;2.67;100.00;99914.09;640519;224;24806;-74
2021/01/02 00:59:02;;;;;;;28.97;17.10;;;;;;;2.62;100.00;99911.84;638976;224;25923;-73
2021/01/02 01:01:33;;;;;;;32.90;16.83;;;;;;;2.70;100.00;99915.20;638147;222;24802;-73
2021/01/02 01:04:25;;;;;;;31.00;16.60;;;;;;;2.81;100.00;99915.28;637843;224;24875;-73
2021/01/02 01:06:55;;;;;;;26.87;15.27;;;;;;;2.98;100.00;99914.98;634137;224;24833;-74
2021/01/02 01:09:24;;;;;;;38.93;18.30;;;;;;;2.89;100.00;99909.17;640456;223;24850;-74
2021/01/02 01:11:53;;;;;;;37.53;21.17;;;;;;;3.40;100.00;99908.28;634205;221;32800;-74
2021/01/02 01:14:21;;;;;;;36.13;18.97;;;;;;;3.03;100.00;99906.14;639410;224;23907;-74
2021/01/02 01:16:49;;;;;;;37.15;21.20;;;;;;;3.51;99.80;99911.72;634891;223;33156;-74
2021/01/02 01:19:17;;;;;;;31.20;18.07;;;;;;;3.13;100.00;99909.27;639021;224;23711;-74
2021/01/02 01:21:45;;;;;;;32.33;18.40;;;;;;;3.27;100.00;99917.30;638539;221;24798;-74
2021/01/02 01:24:13;;;;;;;33.07;17.70;;;;;;;2.91;100.00;99912.45;639409;224;24883;-73
2021/01/02 01:26:51;;;;;;;35.27;17.97;;;;;;;2.88;100.00;99917.81;641434;223;24782;-74
2021/01/02 01:29:20;;;;;;;32.17;17.50;;;;;;;2.92;100.00;99915.38;625073;228;24929;-74
2021/01/02 01:31:48;;;;;;;28.00;16.50;;;;;;;2.93;100.00;99926.02;626826;225;24810;-73
2021/01/02 01:34:21;;;;;;;33.47;18.03;;;;;;;2.88;100.00;99924.23;641062;223;24811;-74
2021/01/02 01:36:49;;;;;;;32.00;16.90;;;;;;;2.88;100.00;99931.93;639804;224;24802;-73
2021/01/02 01:39:17;;;;;;;35.73;19.43;;;;;;;2.91;100.00;99927.05;640752;224;24806;-74
2021/01/02 01:41:44;;;;;;;38.53;17.93;;;;;;;2.87;100.00;99927.72;637573;221;24833;-73
2021/01/02 01:44:36;;;;;;;37.57;16.33;;;;;;;2.82;100.00;99931.53;625057;229;24817;-74
2021/01/02 01:47:04;;;;;;;31.07;17.20;;;;;;;2.85;100.00;99932.14;625733;225;24819;-73
2021/01/02 01:50:02;;;;;;;39.48;22.02;;;;;;;3.13;100.00;99934.13;618346;225;32818;-73
2021/01/02 01:52:36;;;;;;;37.10;19.03;;;;;;;2.89;100.00;99927.16;621198;229;27051;-75
2021/01/02 01:55:06;;;;;;;37.70;19.30;;;;;;;2.80;100.00;99931.61;626407;227;28043;-75
2021/01/02 01:57:37;;;;;;;35.40;18.53;;;;;;;2.78;100.00;99929.61;640173;224;24807;-75
2021/01/02 02:00:13;;;;;;;34.27;17.63;;;;;;;2.86;100.00;99930.40;625925;226;24805;-75
2021/01/02 02:02:54;;;;;;;36.97;18.00;;;;;;;2.76;100.00;99926.33;625038;229;24869;-75
2021/01/02 02:05:22;;;;;;;39.98;22.07;;;;;;;2.80;100.00;99930.79;619601;229;33092;-75
2021/01/02 02:07:53;;;;;;;39.87;22.30;;;;;;;2.63;100.00;99930.64;633239;225;23702;-75
2021/01/02 02:10:26;;;;;;;42.97;20.60;;;;;;;2.60;100.00;99929.56;630808;225;24838;-76
2021/01/02 02:12:54;;;;;;;40.30;19.80;;;;;;;2.56;100.00;99926.38;637586;222;24847;-76
2021/01/02 02:15:23;;;;;;;38.43;18.93;;;;;;;2.49;100.00;99925.59;626286;228;24822;-76
2021/01/02 02:17:53;;;;;;;41.13;19.03;;;;;;;2.44;100.00;99925.08;636821;224;24810;-76
2021/01/02 02:20:22;;;;;;;45.95;23.38;;;;;;;2.45;100.00;99928.01;630542;220;32901;-76
2021/01/02 02:22:52;;;;;;;37.83;19.70;;;;;;;2.48;100.00;99926.52;625353;229;23666;-75
2021/01/02 02:25:20;;;;;;;42.90;20.23;;;;;;;2.49;100.00;99930.27;626308;226;24851;-75
2021/01/02 02:27:48;;;;;;;38.50;20.07;;;;;;;2.44;100.00;99932.78;626171;229;24834;-75
2021/01/02 02:30:16;;;;;;;40.43;18.10;;;;;;;2.57;100.00;99942.61;625046;225;25880;-75
2021/01/02 02:32:45;;;;;;;41.67;20.00;;;;;;;2.70;100.00;99940.87;626207;228;24825;-75
2021/01/02 02:35:14;;;;;;;37.63;18.73;;;;;;;2.79;100.00;99940.24;634266;225;24868;-73
2021/01/02 02:37:43;;;;;;;41.50;19.67;;;;;;;2.88;100.00;99937.06;634309;225;24883;-73
2021/01/02 02:40:12;;;;;;;38.90;19.00;;;;;;;2.91;100.00;99940.70;637025;220;25098;-73
2021/01/02 02:42:41;;;;;;;44.60;19.63;;;;;;;2.97;100.00;99935.17;635084;225;24846;-74
2021/01/02 02:45:09;;;;;;;46.70;24.65;;;;;;;3.10;100.00;99928.75;630991;225;32976;-73
2021/01/02 02:47:38;;;;;;;49.13;21.97;;;;;;;2.93;100.00;99932.90;636805;225;23715;-73
2021/01/02 02:50:07;;;;;;;40.60;20.47;;;;;;;2.84;100.00;99928.40;628470;225;24839;-73
2021/01/02 02:52:35;;;;;;;40.50;20.17;;;;;;;2.89;100.00;99930.19;631808;225;25325;-74
2021/01/02 02:55:03;;;;;;;42.90;22.90;;;;;;;3.06;100.00;99936.74;623371;225;32971;-73
2021/01/02 02:57:31;;;;;;;38.23;19.80;;;;;;;2.88;100.00;99931.93;630500;225;23701;-74
2021/01/02 02:59:59;;;;;;;41.20;19.87;;;;;;;2.91;100.00;99932.19;635491;221;24832;-73
2021/01/02 03:02:27;;;;;;;38.10;20.07;;;;;;;2.88;100.00;99933.22;639102;224;24795;-73
2021/01/02 03:04:55;;;;;;;39.20;19.60;;;;;;;2.88;100.00;99934.50;639234;224;25179;-73
2021/01/02 03:07:23;;;;;;;45.87;21.37;;;;;;;2.88;100.00;99934.50;639872;224;24824;-73
2021/01/02 03:09:51;;;;;;;41.60;19.27;;;;;;;2.69;100.00;99937.95;624950;226;24865;-73
2021/01/02 03:12:19;;;;;;;41.30;19.20;;;;;;;2.89;100.00;99938.71;626090;228;24830;-74
2021/01/02 03:14:47;;;;;;;44.88;24.23;;;;;;;3.05;100.00;99940.23;635410;224;32944;-74
2021/01/02 03:17:16;;;;;;;41.83;22.60;;;;;;;2.87;100.00;99943.13;638999;224;23724;-73
2021/01/02 03:19:44;;;;;;;38.63;19.77;;;;;;;2.78;100.00;99940.34;628599;220;26110;-73
2021/01/02 03:22:12;;;;;;;42.43;19.90;;;;;;;2.83;100.00;99939.59;639042;224;24829;-73
2021/01/02 03:24:42;;;;;;;34.33;18.50;;;;;;;2.80;100.00;99946.20;628092;227;24934;-73
2021/01/02 03:27:14;;;;;;;46.85;23.73;;;;;;;3.14;100.00;99943.48;635614;223;43478;-73
2021/01/02 03:29:42;;;;;;;47.07;22.27;;;;;;;2.90;100.00;99952.38;642142;221;23900;-73
2021/01/02 03:32:10;;;;;;;48.02;24.90;;;;;;;3.27;100.00;99950.71;620441;229;32815;-74
2021/01/02 03:34:38;;;;;;;38.80;20.93;;;;;;;2.84;100.00;99954.08;629653;226;23783;-74
2021/01/02 03:37:06;;;;;;;45.43;20.00;;;;;;;3.01;100.00;99954.23;625421;229;24801;-74
2021/01/02 03:39:34;;;;;;;39.53;20.57;;;;;;;2.84;100.00;99951.52;639417;221;24811;-74
2021/01/02 03:42:02;;;;;;;46.83;21.10;;;;;;;2.87;100.00;99952.58;638928;224;24807;-74
2021/01/02 03:44:30;;;;;;;40.13;20.00;;;;;;;2.78;100.00;99956.58;620647;229;24793;-74
2021/01/02 03:46:58;;;;;;;38.83;19.53;;;;;;;2.77;100.00;99951.08;637963;225;24854;-74
2021/01/02 03:49:25;;;;;;;42.60;21.20;;;;;;;2.79;100.00;99951.80;638889;225;24834;-73
2021/01/02 03:51:53;;;;;;;34.77;18.63;;;;;;;2.81;100.00;99950.41;636046;220;24844;-74
2021/01/02 03:54:22;;;;;;;41.57;20.07;;;;;;;2.67;100.00;99951.32;624019;229;24830;-73
2021/01/02 03:56:51;;;;;;;39.97;19.13;;;;;;;2.59;100.00;99946.71;627322;228;25072;-74
2021/01/02 03:59:19;;;;;;;39.50;18.50;;;;;;;2.55;100.00;99949.59;628864;227;24902;-74
2021/01/02 04:01:53;;;;;;;46.55;24.43;;;;;;;2.64;100.00;99947.68;633896;221;32781;-73
2021/01/02 04:04:21;;;;;;;48.53;23.17;;;;;;;2.56;100.00;99943.53;626411;229;23690;-74
2021/01/02 04:06:50;;;;;;;41.60;22.40;;;;;;;2.66;100.00;99942.80;626395;228;25118;-74
2021/01/02 04:09:17;;;;;;;43.67;19.13;;;;;;;2.73;100.00;99939.84;640230;224;24790;-74
2021/01/02 04:11:45;;;;;;;40.03;19.90;;;;;;;2.71;100.00;99939.95;641873;220;24798;-74
2021/01/02 04:14:13;;;;;;;42.63;20.13;;;;;;;2.67;100.00;99943.62;625657;229;24849;-74
2021/01/02 04:16:41;;;;;;;45.90;21.37;;;;;;;2.88;100.00;99938.81;642069;224;24819;-74
2021/01/02 04:19:09;;;;;;;41.43;19.67;;;;;;;2.71;100.00;99936.56;639154;224;25172;-74
2021/01/02 04:21:36;;;;;;;49.15;24.00;;;;;;;3.05;100.00;99941.53;632163;222;32859;-73
2021/01/02 04:24:05;;;;;;;45.37;21.83;;;;;;;2.77;100.00;99931.00;639537;224;23665;-74
2021/01/02 04:26:33;;;;;;;41.93;21.30;;;;;;;2.77;100.00;99938.24;622632;229;24789;-75
2021/01/02 04:29:01;;;;;;;42.13;19.00;;;;;;;2.80;100.00;99941.88;639744;223;24931;-73
2021/01/02 04:31:33;;;;;;;40.43;20.47;;;;;;;2.83;100.00;99934.46;638467;221;24790;-74
2021/01/02 04:34:01;;;;;;;42.13;20.30;;;;;;;2.84;100.00;99938.20;639329;223;27148;-74
2021/01/02 04:36:29;;;;;;;43.70;20.10;;;;;;;2.64;100.00;99939.98;641901;222;24841;-74
2021/01/02 04:38:57;;;;;;;46.13;21.10;;;;;;;2.70;100.00;99933.17;640052;223;24791;-74
2021/01/02 04:41:25;;;;;;;42.97;21.90;;;;;;;2.59;100.00;99933.88;642187;220;24954;-73
2021/01/02 04:43:52;;;;;;;44.67;20.10;;;;;;;2.64;100.00;99935.66;627672;229;24805;-74
2021/01/02 04:46:21;;;;;;;43.40;20.30;;;;;;;2.58;100.00;99935.27;635572;225;24847;-74
2021/01/02 04:48:49;;;;;;;45.70;20.33;;;;;;;2.57;100.00;99925.92;627672;225;25552;-74
2021/01/02 04:51:17;;;;;;;47.67;20.17;;;;;;;2.60;100.00;99923.14;635958;225;28014;-74
2021/01/02 04:53:45;;;;;;;48.33;20.60;;;;;;;2.63;100.00;99917.34;625903;225;24863;-74
2021/01/02 04:56:13;;;;;;;46.90;21.03;;;;;;;2.60;100.00;99922.69;625976;225;24856;-74
2021/01/02 04:58:41;;;;;;;43.93;21.47;;;;;;;2.60;100.00;99920.11;628015;226;24851;-74
2021/01/02 05:01:09;;;;;;;50.58;25.52;;;;;;;2.78;100.00;99930.90;625754;225;43877;-74
2021/01/02 05:03:37;;;;;;;52.73;26.68;;;;;;;2.95;100.00;99928.01;620604;226;33638;-74
2021/01/02 05:06:05;;;;;;;53.33;27.95;;;;;;;3.00;100.00;99933.32;619905;226;32820;-74
2021/01/02 05:08:33;;;;;;;51.60;22.73;;;;;;;2.69;100.00;99930.25;634220;225;23713;-74
2021/01/02 05:11:01;;;;;;;43.60;22.80;;;;;;;2.61;100.00;99931.20;625577;227;28117;-74
2021/01/02 05:13:29;;;;;;;37.17;20.43;;;;;;;2.68;100.00;99933.74;625122;225;24878;-74
2021/01/02 05:15:57;;;;;;;40.37;19.67;;;;;;;2.60;100.00;99927.81;635903;224;24816;-74
2021/01/02 05:18:25;;;;;;;41.60;21.47;;;;;;;2.56;100.00;99929.41;638652;224;24876;-74
2021/01/02 05:20:53;;;;;;;48.37;25.20;;;;;;;2.81;100.00;99925.55;634396;220;32741;-73
2021/01/02 05:23:21;;;;;;;48.58;26.70;;;;;;;2.83;100.00;99922.45;618537;229;32784;-74
2021/01/02 05:25:50;;;;;;;50.03;27.20;;;;;;;2.86;100.00;99928.65;624200;226;33037;-73
2021/01/02 05:28:18;;;;;;;45.03;24.70;;;;;;;2.77;100.00;99932.28;628185;228;23717;-74
2021/01/02 05:30:46;;;;;;;40.33;21.00;;;;;;;2.62;100.00;99928.53;625367;225;24792;-74
2021/01/02 05:33:14;;;;;;;45.73;22.30;;;;;;;2.51;100.00;99930.98;636721;224;24836;-74
2021/01/02 05:35:42;;;;;;;41.13;19.70;;;;;;;2.53;100.00;99929.59;638744;224;24805;-74
2021/01/02 05:38:12;;;;;;;41.60;20.77;;;;;;;2.44;100.00;99932.78;639021;224;24882;-74
2021/01/02 05:40:40;;;;;;;38.17;19.30;;;;;;;2.51;100.00;99936.58;640000;221;25848;-74
2021/01/02 05:43:08;;;;;;;47.23;21.27;;;;;;;2.60;100.00;99935.52;640158;223;24819;-74
2021/01/02 05:45:36;;;;;;;43.17;21.50;;;;;;;2.63;100.00;99943.01;638699;224;24821;-73
2021/01/02 05:48:11;;;;;;;48.02;25.62;;;;;;;2.73;100.00;99941.95;629315;224;32985;-73
2021/01/02 05:50:50;;;;;;;47.00;22.97;;;;;;;2.66;100.00;99943.27;625988;225;23685;-74
2021/01/02 05:53:23;;;;;;;46.60;22.13;;;;;;;2.69;100.00;99940.52;640109;223;24804;-74
2021/01/02 05:55:58;;;;;;;43.40;22.17;;;;;;;2.74;100.00;99953.86;640583;224;24824;-74
2021/01/02 05:58:26;;;;;;;50.17;22.10;;;;;;;2.65;100.00;99948.86;626497;229;24800;-73
2021/01/02 06:01:03;;;;;;;44.37;20.70;;;;;;;2.69;100.00;99961.05;639619;221;24843;-74
2021/01/02 06:03:31;;;;;;;52.33;27.05;;;;;;;2.92;100.00;99961.61;627234;224;32795;-74
2021/01/02 06:05:59;;;;;;;50.58;27.45;;;;;;;3.04;100.00;99963.00;618954;229;32989;-74
2021/01/02 06:08:31;;;;;;;46.83;22.93;;;;;;;2.79;100.00;99959.96;638191;224;23685;-74
2021/01/02 06:11:00;;;;;;;48.73;23.30;;;;;;;2.85;100.00;99971.95;639835;220;24838;-74
2021/01/02 06:13:29;;;;;;;45.27;22.20;;;;;;;2.86;100.00;99971.02;638699;224;28008;-73
2021/01/02 06:15:58;;;;;;;47.47;21.57;;;;;;;2.69;100.00;99973.89;639550;224;24828;-74
2021/01/02 06:18:27;;;;;;;48.63;21.00;;;;;;;2.74;100.00;99978.25;638477;224;24806;-74
2021/01/02 06:20:56;;;;;;;43.30;20.50;;;;;;;2.71;100.00;99972.50;639436;221;24797;-74
2021/01/02 06:23:25;;;;;;;39.93;19.80;;;;;;;2.64;100.00;99977.20;639834;224;24813;-74
2021/01/02 06:25:53;;;;;;;46.13;19.67;;;;;;;2.64;100.00;99978.48;625437;229;24802;-73
2021/01/02 06:28:21;;;;;;;42.23;19.73;;;;;;;2.58;100.00;99978.90;625580;228;24808;-72
2021/01/02 06:30:49;;;;;;;45.53;22.77;;;;;;;2.63;100.00;99987.11;639112;221;24818;-73
2021/01/02 06:33:17;;;;;;;49.80;22.77;;;;;;;2.61;100.00;99985.11;640721;224;24849;-72
2021/01/02 06:35:45;;;;;;;48.13;21.83;;;;;;;2.55;100.00;99982.95;638411;224;24827;-73
2021/01/02 06:38:15;;;;;;;52.97;22.10;;;;;;;2.51;100.00;99981.48;640836;224;28010;-73
2021/01/02 06:40:45;;;;;;;42.37;21.07;;;;;;;2.60;100.00;99987.32;639267;221;24779;-73
2021/01/02 06:43:13;;;;;;;52.27;21.40;;;;;;;2.70;100.00;99984.52;624967;229;27295;-73
2021/01/02 06:46:00;;;;;;;50.80;20.30;;;;;;;2.79;100.00;99985.17;624666;229;26027;-73
2021/01/02 06:48:36;;;;;;;51.50;20.30;;;;;;;2.76;100.00;99984.10;637585;224;26971;-73
2021/01/02 06:51:11;;;;;;;44.73;21.67;;;;;;;2.73;100.00;99980.45;625210;224;24805;-72
2021/01/02 06:53:39;;;;;;;44.30;19.97;;;;;;;2.61;100.00;99985.94;633684;225;24787;-73
2021/01/02 06:56:07;;;;;;;44.17;21.70;;;;;;;2.68;100.00;99988.94;626638;227;24843;-73
2021/01/02 06:58:35;;;;;;;45.37;21.77;;;;;;;2.61;100.00;99981.27;641643;222;24820;-73
2021/01/02 07:01:03;;;;;;;46.73;20.63;;;;;;;2.52;100.00;99988.27;639626;220;24802;-74
2021/01/02 07:03:43;;;;;;;46.10;20.87;;;;;;;2.62;100.00;99988.04;621634;229;24796;-73
2021/01/02 07:06:21;;;;;;;49.60;21.53;;;;;;;2.55;100.00;99993.22;639134;224;26148;-74
2021/01/02 07:08:50;;;;;;;54.38;27.10;;;;;;;2.68;100.00;99982.05;622016;225;33005;-76
2021/01/02 07:11:22;;;;;;;51.40;24.20;;;;;;;2.61;100.00;99980.80;642382;220;23726;-75
2021/01/02 07:13:50;;;;;;;48.27;23.10;;;;;;;2.62;100.00;99973.45;626394;229;24804;-74
2021/01/02 07:16:28;;;;;;;42.23;20.40;;;;;;;2.61;100.00;99970.99;639492;223;24823;-74
2021/01/02 07:18:57;;;;;;;46.73;20.73;;;;;;;2.57;100.00;99968.27;638733;224;24807;-75
2021/01/02 07:21:34;;;;;;;44.50;21.03;;;;;;;2.65;100.00;99972.42;638424;221;28060;-76
2021/01/02 07:24:21;;;;;;;46.37;20.97;;;;;;;2.55;100.00;99979.92;639735;224;24805;-77
2021/01/02 07:26:49;;;;;;;55.12;26.82;;;;;;;2.59;100.00;99972.84;636713;223;32744;-75
2021/01/02 07:29:18;;;;;;;50.23;24.87;;;;;;;2.55;100.00;99977.82;626474;229;23678;-75
2021/01/02 07:31:46;;;;;;;59.23;23.60;;;;;;;2.49;100.00;99971.78;626554;225;24822;-75
2021/01/02 07:34:18;;;;;;;50.60;22.30;;;;;;;2.51;100.00;99972.50;638100;225;24785;-75
2021/01/02 07:36:46;;;;;;;45.17;20.97;;;;;;;2.54;100.00;99971.87;638276;225;24808;-75
2021/01/02 07:39:14;;;;;;;51.07;21.43;;;;;;;2.55;100.00;99973.97;627699;228;24832;-75
2021/01/02 07:41:42;;;;;;;51.27;21.10;;;;;;;2.49;100.00;99972.61;625538;225;24910;-76
2021/01/02 07:44:10;;;;;;;45.27;20.83;;;;;;;2.52;100.00;99976.72;636899;224;24803;-74
2021/01/02 07:46:42;;;;;;;43.00;21.00;;;;;;;2.48;100.00;99976.56;628652;228;24839;-74
2021/01/02 07:49:10;;;;;;;45.80;21.73;;;;;;;2.53;100.00;99983.48;640443;224;24785;-74
2021/01/02 07:51:38;;;;;;;46.20;20.30;;;;;;;2.49;100.00;99976.92;635436;225;24873;-73
2021/01/02 07:54:06;;;;;;;46.53;21.33;;;;;;;2.60;100.00;99987.32;633793;225;28042;-74
2021/01/02 07:56:38;;;;;;;42.67;19.50;;;;;;;2.51;100.00;99995.61;637263;225;24843;-74
2021/01/02 07:59:17;;;;;;;39.90;21.93;;;;;;;2.60;100.00;99984.75;634339;225;24835;-74
2021/01/02 08:01:45;;;;;;;51.77;20.90;;;;;;;2.58;100.00;99990.45;626514;225;27041;-74
2021/01/02 08:04:13;;;;;;;44.60;20.37;;;;;;;2.62;100.00;99991.89;636379;225;24774;-74
2021/01/02 08:06:45;;;;;;;44.63;20.07;;;;;;;2.62;100.00;99984.19;624760;229;24832;-74
2021/01/02 08:09:13;;;;;;;49.73;20.70;;;;;;;2.56;100.00;99988.45;625610;229;24955;-74
2021/01/02 08:11:48;;;;;;;43.10;21.60;;;;;;;2.59;100.00;99990.34;627950;225;24840;-73
2021/01/02 08:14:16;;;;;;;46.93;22.07;;;;;;;2.65;100.00;99995.07;643683;223;24806;-74
2021/01/02 08:16:56;;;;;;;51.20;25.65;;;;;;;3.00;100.00;99998.36;635952;223;32767;-73
2021/01/02 08:19:24;;;;;;;45.83;22.13;;;;;;;2.87;100.00;99998.34;640594;224;23679;-74
2021/01/02 08:21:52;;;;;;;45.30;21.97;;;;;;;2.75;100.00;99997.05;626790;225;24887;-74
2021/01/02 08:24:19;;;;;;;44.80;20.53;;;;;;;2.72;100.00;100003.20;637245;224;25992;-74
2021/01/02 08:26:47;;;;;;;53.48;26.07;;;;;;;2.83;100.00;100009.75;621251;229;32769;-74
2021/01/02 08:29:18;;;;;;;48.00;22.77;;;;;;;2.73;100.00;100012.55;628791;227;23702;-74
2021/01/02 08:31:49;;;;;;;47.77;22.60;;;;;;;2.78;100.00;100018.66;625872;225;24815;-74
2021/01/02 08:34:22;;;;;;;44.50;22.00;;;;;;;2.72;100.00;100017.33;639397;224;24827;-77
2021/01/02 08:36:52;;;;;;;41.77;19.80;;;;;;;2.74;100.00;100016.77;618360;229;24940;-74
2021/01/02 08:39:20;;;;;;;43.00;21.60;;;;;;;2.68;100.00;100028.27;641693;223;24804;-73
2021/01/02 08:41:53;;;;;;;50.27;22.13;;;;;;;2.65;100.00;100026.34;640525;220;28029;-73
2021/01/02 08:44:23;;;;;;;52.50;21.40;;;;;;;2.65;100.00;100025.88;623110;229;27074;-76
2021/01/02 08:46:51;;;;;;;40.00;20.13;;;;;;;2.68;100.00;100028.73;637984;225;24756;-74
2021/01/02 08:49:27;;;;;;;54.07;23.00;;;;;;;2.69;100.00;100029.09;625650;228;27996;-74
2021/01/02 08:52:13;;;;;;;48.77;21.43;;;;;;;2.66;100.00;100027.98;626486;226;24863;-74
2021/01/02 08:54:41;;;;;;;54.20;26.60;;;;;;;2.76;100.00;100026.47;627319;225;32789;-74
2021/01/02 08:57:26;;;;;;;48.90;23.07;;;;;;;2.66;100.00;100027.98;627463;225;23713;-74
2021/01/02 09:00:04;;;;;;;43.80;21.80;;;;;;;2.67;100.00;100029.19;630117;225;24859;-76
2021/01/02 09:02:32;;;;;;;46.20;21.53;;;;;;;2.72;100.00;100026.31;630144;225;24848;-75
2021/01/02 09:07:56;;;;;;;44.67;20.93;;;;;;;2.78;100.00;100031.04;629324;223;24848;-75
2021/01/02 09:10:33;;;;;;;50.63;21.77;;;;;;;2.76;100.00;100026.93;625859;225;27418;-75
2021/01/02 09:13:12;;;;;;;46.47;21.60;;;;;;;2.86;100.00;100022.38;630398;225;24823;-74
2021/01/02 09:15:48;;;;;;;40.47;20.63;;;;;;;2.91;100.00;100024.17;633039;221;24828;-76
2021/01/02 09:21:02;;;;;;;43.83;20.67;;;;;;;2.82;100.00;100026.55;639182;221;24800;-73
2021/01/02 09:23:42;;;;;;;40.13;20.50;;;;;;;2.94;100.00;100029.56;635950;224;24819;-76
2021/01/02 09:26:20;;;;;;;43.97;20.87;;;;;;;2.98;100.00;100033.14;639580;224;24797;-76
2021/01/02 09:28:49;;;;;;;43.67;20.40;;;;;;;2.97;100.00;100028.92;624070;229;24802;-74
2021/01/02 09:31:17;;;;;;;39.63;18.80;;;;;;;3.02;100.00;100036.78;625527;225;27001;-73
2021/01/02 09:33:45;;;;;;;46.13;20.60;;;;;;;2.96;100.00;100027.28;642838;223;24778;-74
2021/01/02 09:36:14;;;;;;;39.73;19.90;;;;;;;2.93;100.00;100032.59;639599;224;24837;-73
2021/01/02 09:38:42;;;;;;;38.27;18.43;;;;;;;2.94;100.00;100030.39;638277;224;24792;-73
2021/01/02 09:41:10;;;;;;;37.73;19.13;;;;;;;2.97;100.00;100023.79;641029;220;24819;-76
2021/01/02 09:43:38;;;;;;;38.00;18.57;;;;;;;2.96;100.00;100019.58;640154;223;24794;-74
2021/01/02 09:46:06;;;;;;;46.33;24.30;;;;;;;3.04;100.00;100022.09;620622;229;32794;-74
2021/01/02 09:48:34;;;;;;;42.50;22.20;;;;;;;3.07;100.00;100019.30;642015;223;23658;-74
2021/01/02 09:51:02;;;;;;;38.37;19.20;;;;;;;3.25;100.00;100031.77;641290;220;29246;-74
2021/01/02 09:53:30;;;;;;;36.77;19.70;;;;;;;3.17;100.00;100037.05;622902;229;24805;-74
2021/01/02 09:55:58;;;;;;;38.60;17.93;;;;;;;3.24;100.00;100032.69;635106;225;24848;-74
2021/01/02 09:58:26;;;;;;;37.83;19.17;;;;;;;3.22;100.00;100029.38;634951;225;24862;-74
2021/01/02 10:00:54;;;;;;;37.97;20.17;;;;;;;3.30;100.00;100032.73;633589;221;31466;-74
2021/01/02 10:03:22;;;;;;;40.10;18.83;;;;;;;3.27;100.00;100026.52;638441;225;24775;-74
2021/01/02 10:05:50;;;;;;;33.70;18.20;;;;;;;3.32;100.00;100022.34;639738;223;24829;-74
2021/01/02 10:08:17;;;;;;;39.47;18.97;;;;;;;3.29;100.00;100020.81;639807;224;24834;-74
2021/01/02 10:10:45;;;;;;;29.77;17.00;;;;;;;3.33;100.00;100018.38;638013;221;24799;-74
2021/01/02 10:13:13;;;;;;;35.57;17.50;;;;;;;3.34;100.00;100020.02;639442;224;25929;-74
2021/01/02 10:15:41;;;;;;;30.67;17.00;;;;;;;3.37;100.00;100021.09;641393;224;29120;-74
2021/01/02 10:18:09;;;;;;;28.60;16.17;;;;;;;3.41;100.00;100012.27;640051;224;24856;-75
2021/01/02 10:20:38;;;;;;;29.60;16.67;;;;;;;3.35;100.00;100013.95;639502;221;25825;-73
2021/01/02 10:23:05;;;;;;;31.80;16.83;;;;;;;3.40;100.00;100012.38;636745;225;24764;-74
2021/01/02 10:25:33;;;;;;;29.17;15.63;;;;;;;3.55;100.00;100017.29;626190;229;24805;-76
2021/01/02 10:28:01;;;;;;;27.00;15.40;;;;;;;3.61;100.00;100012.18;624453;228;24836;-73
2021/01/02 10:30:29;;;;;;;27.57;15.50;;;;;;;3.66;100.00;100019.13;624792;225;24825;-70
2021/01/02 10:32:57;;;;;;;30.70;16.40;;;;;;;3.64;100.00;100018.39;626107;228;24833;-71
2021/01/02 10:35:25;;;;;;;27.13;15.93;;;;;;;3.72;100.00;100004.55;627585;228;25169;-74
2021/01/02 10:37:53;;;;;;;26.07;14.43;;;;;;;3.64;99.16;100000.86;626288;227;24857;-73
2021/01/02 10:40:21;;;;;;;25.63;14.87;;;;;;;3.77;99.59;99997.33;625466;225;24793;-73
2021/01/02 10:42:49;;;;;;;21.50;13.13;;;;;;;3.78;99.17;99996.86;638381;224;24769;-73
2021/01/02 10:45:17;;;;;;;25.80;13.50;;;;;;;3.68;98.41;99990.73;639582;223;24888;-73
2021/01/02 10:47:45;;;;;;;23.37;13.67;;;;;;;3.81;97.79;100000.53;640329;224;25071;-73
2021/01/02 10:50:13;;;;;;;21.57;13.57;;;;;;;3.92;96.87;99977.42;638782;221;24791;-73
2021/01/02 10:52:41;;;;;;;22.80;14.87;;;;;;;4.09;97.40;99989.93;620872;229;32804;-74
2021/01/02 10:55:09;;;;;;;24.00;13.83;;;;;;;3.98;96.71;99975.72;638789;224;23680;-73
2021/01/02 10:57:37;;;;;;;18.87;11.60;;;;;;;3.90;96.41;99978.00;638681;224;24808;-74
2021/01/02 11:02:50;;;;;;;18.97;11.40;;;;;;;3.90;94.95;99965.13;628937;225;24820;-75
2021/01/02 11:05:19;;;;;;;16.80;10.53;;;;;;;3.99;94.66;99960.63;651788;216;24762;-75
2021/01/02 11:07:46;;;;;;;14.97;10.37;;;;;;;4.00;93.17;99957.59;650939;216;24811;-76
2021/01/02 11:10:15;;;;;;;15.60;8.83;;;;;;;4.10;92.34;99953.44;630668;226;24854;-75
2021/01/02 11:12:43;;;;;;;16.70;10.07;;;;;;;4.16;90.71;99950.41;633398;226;24874;-76
2021/01/02 11:15:12;;;;;;;14.60;8.83;;;;;;;4.18;91.28;99945.50;634619;226;25159;-76
2021/01/02 11:17:40;;;;;;;17.90;8.70;;;;;;;4.18;90.67;99940.36;645457;221;24816;-76
2021/01/02 11:20:10;;;;;;;12.17;7.60;;;;;;;4.24;90.50;99942.15;660527;216;24776;-76
2021/01/02 11:22:37;;;;;;;11.83;8.10;;;;;;;4.24;89.17;99926.70;643637;222;24813;-77
2021/01/02 11:25:07;;;;;;;11.07;7.07;;;;;;;4.35;87.31;99915.13;634627;225;25167;-76
2021/01/02 11:27:35;;;;;;;9.70;6.00;;;;;;;4.27;85.20;99911.85;662222;216;24760;-75
2021/01/02 11:30:03;;;;;;;12.30;7.20;;;;;;;4.30;87.24;99912.09;648240;220;24979;-77
2021/01/02 11:32:31;;;;;;;10.13;6.90;;;;;;;4.29;86.70;99915.13;645415;221;24782;-78
2021/01/02 11:35:00;;;;;;;11.37;6.90;;;;;;;4.39;86.78;99914.00;664364;216;24750;-75
2021/01/02 11:37:27;;;;;;;10.47;5.90;;;;;;;4.38;85.36;99901.59;647746;221;24784;-76
2021/01/02 11:39:55;;;;;;;9.20;6.25;;;;;;;4.59;85.51;99903.49;628543;226;33598;-75